createdAt,value
2024-02-05T00:00:47.710Z,9.60
2024-02-05T00:05:49.583Z,9.70
2024-02-05T00:10:52.803Z,9.70
2024-02-05T00:15:54.666Z,9.70
2024-02-05T00:20:56.583Z,9.60
2024-02-05T00:25:59.704Z,9.60
2024-02-05T00:31:01.722Z,9.60
2024-02-05T00:36:04.009Z,9.70
2024-02-05T00:41:08.788Z,9.60
2024-02-05T00:46:20.431Z,9.60
2024-02-05T00:51:22.335Z,9.60
2024-02-05T00:56:25.880Z,9.50
2024-02-05T01:01:27.771Z,9.50
2024-02-05T01:06:29.677Z,9.50
2024-02-05T01:11:32.943Z,9.50
2024-02-05T01:16:34.766Z,9.50
2024-02-05T01:21:36.641Z,9.50
2024-02-05T01:26:39.859Z,9.50
2024-02-05T01:31:43.650Z,9.50
2024-02-05T01:36:45.480Z,9.60
2024-02-05T01:41:48.747Z,9.50
2024-02-05T01:46:51.146Z,9.40
2024-02-05T01:51:55.553Z,9.50
2024-02-05T01:57:02.208Z,9.60
2024-02-05T02:02:04.503Z,9.60
2024-02-05T02:07:07.141Z,9.50
2024-02-05T02:12:10.835Z,9.60
2024-02-05T02:17:12.699Z,9.60
2024-02-05T02:22:26.782Z,9.60
2024-02-05T02:27:30.112Z,9.60
2024-02-05T02:32:37.438Z,9.50
2024-02-05T02:37:45.725Z,9.50
2024-02-05T02:42:56.619Z,9.40
2024-02-05T02:47:58.585Z,9.40
2024-02-05T02:53:00.391Z,9.50
2024-02-05T02:58:03.782Z,9.50
2024-02-05T03:03:05.733Z,9.50
2024-02-05T03:08:07.935Z,9.50
2024-02-05T03:13:11.396Z,9.50
2024-02-05T03:18:13.255Z,9.50
2024-02-05T03:23:15.400Z,9.50
2024-02-05T03:28:18.831Z,9.40
2024-02-05T03:33:20.807Z,9.40
2024-02-05T03:38:22.658Z,9.50
2024-02-05T03:43:25.859Z,9.60
2024-02-05T03:48:27.707Z,9.60
2024-02-05T03:53:29.514Z,9.50
2024-02-05T03:58:32.774Z,9.60
2024-02-05T04:03:34.683Z,9.60
2024-02-05T04:08:36.522Z,9.60
2024-02-05T04:13:39.766Z,9.60
2024-02-05T04:18:41.593Z,9.60
2024-02-05T04:23:43.396Z,9.60
2024-02-05T04:28:46.626Z,9.60
2024-02-05T04:33:48.532Z,9.60
2024-02-05T04:38:50.421Z,9.60
2024-02-05T04:43:53.726Z,9.60
2024-02-05T04:49:43.824Z,9.60
2024-02-05T04:55:08.958Z,9.60
2024-02-05T05:06:19.467Z,9.60
2024-02-05T05:11:31.737Z,9.60
2024-02-05T05:16:35.136Z,9.70
2024-02-05T05:21:36.958Z,9.70
2024-02-05T05:26:38.740Z,9.70
2024-02-05T05:31:41.973Z,9.60
2024-02-05T05:36:43.959Z,9.70
2024-02-05T05:41:46.080Z,9.60
2024-02-05T05:46:49.419Z,9.60
2024-02-05T05:51:51.297Z,9.60
2024-02-05T05:56:53.273Z,9.60
2024-02-05T06:01:56.626Z,9.60
2024-02-05T06:06:58.481Z,9.60
2024-02-05T06:12:00.401Z,9.50
2024-02-05T06:17:03.891Z,9.50
2024-02-05T06:22:22.494Z,9.60
2024-02-05T06:27:25.571Z,9.50
2024-02-05T06:32:29.042Z,9.50
2024-02-05T06:37:34.267Z,9.50
2024-02-05T06:42:36.324Z,9.40
2024-02-05T06:47:48.624Z,9.50
2024-02-05T06:52:53.197Z,9.40
2024-02-05T06:57:55.300Z,9.40
2024-02-05T07:02:58.680Z,9.30
2024-02-05T07:08:00.548Z,9.30
2024-02-05T07:13:04.013Z,9.30
2024-02-05T07:18:07.840Z,9.30
2024-02-05T07:23:09.844Z,9.30
2024-02-05T07:28:11.771Z,9.30
2024-02-05T07:33:15.112Z,9.30
2024-02-05T07:38:17.004Z,9.40
2024-02-05T07:43:19.050Z,9.50
2024-02-05T07:48:22.571Z,9.60
2024-02-05T07:53:24.547Z,9.60
2024-02-05T07:58:26.622Z,9.60
2024-02-05T08:03:31.772Z,9.50
2024-02-05T08:08:33.544Z,9.40
2024-02-05T08:13:35.411Z,9.50
2024-02-05T08:18:38.784Z,9.50
2024-02-05T08:23:40.862Z,9.50
2024-02-05T08:28:42.696Z,9.50
2024-02-05T08:33:45.992Z,9.70
2024-02-05T08:38:47.817Z,9.80
2024-02-05T08:43:49.610Z,9.90
2024-02-05T08:48:52.802Z,9.90
2024-02-05T08:53:54.624Z,10.00
2024-02-05T08:58:56.427Z,10.00
2024-02-05T09:03:59.730Z,10.10
2024-02-05T09:09:01.975Z,10.10
2024-02-05T09:14:03.872Z,10.00
2024-02-05T09:19:07.112Z,10.10
2024-02-05T09:24:08.987Z,10.10
2024-02-05T09:29:13.919Z,10.30
2024-02-05T09:34:17.326Z,10.20
2024-02-05T09:39:19.190Z,10.30
2024-02-05T09:44:22.161Z,10.30
2024-02-05T09:49:26.054Z,10.30
2024-02-05T09:54:27.936Z,10.30
2024-02-05T09:59:29.758Z,10.40
2024-02-05T10:04:36.918Z,10.50
2024-02-05T10:09:40.570Z,10.40
2024-02-05T10:14:43.214Z,10.40
2024-02-05T10:19:47.118Z,10.20
2024-02-05T10:24:50.704Z,10.40
2024-02-05T10:30:02.719Z,10.40
2024-02-05T10:35:08.054Z,10.40
2024-02-05T10:40:11.744Z,10.50
2024-02-05T10:45:13.746Z,10.50
2024-02-05T10:50:17.097Z,10.90
2024-02-05T10:55:19.153Z,11.20
2024-02-05T11:00:21.430Z,11.60
2024-02-05T11:05:26.246Z,12.00
2024-02-05T11:10:30.560Z,12.60
2024-02-05T11:15:36.965Z,13.00
2024-02-05T11:20:41.252Z,12.90
2024-02-05T11:25:43.396Z,12.90
2024-02-05T11:30:45.446Z,13.20
2024-02-05T11:35:52.026Z,12.70
2024-02-05T11:40:54.974Z,12.40
2024-02-05T11:45:56.969Z,12.50
2024-02-05T11:51:00.750Z,12.40
2024-02-05T11:56:02.617Z,12.30
2024-02-05T12:01:04.936Z,12.30
2024-02-05T12:06:08.970Z,12.30
2024-02-05T12:11:10.910Z,12.50
2024-02-05T12:16:14.095Z,12.40
2024-02-05T12:21:17.612Z,12.10
2024-02-05T12:26:21.356Z,11.90
2024-02-05T12:31:23.743Z,12.00
2024-02-05T12:36:27.710Z,12.10
2024-02-05T12:41:29.689Z,12.20
2024-02-05T12:51:50.862Z,12.70
2024-02-05T12:56:52.840Z,12.70
2024-02-05T13:01:59.427Z,12.50
2024-02-05T13:07:09.388Z,12.30
2024-02-05T13:12:14.434Z,12.40
2024-02-05T13:17:16.303Z,12.50
2024-02-05T13:22:19.736Z,12.30
2024-02-05T13:27:21.533Z,12.50
2024-02-05T13:32:23.384Z,12.60
2024-02-05T13:37:26.931Z,12.50
2024-02-05T13:42:28.736Z,12.40
2024-02-05T13:47:30.549Z,12.30
2024-02-05T13:52:34.106Z,12.30
2024-02-05T13:57:38.957Z,12.30
2024-02-05T14:02:42.177Z,12.30
2024-02-05T14:07:45.740Z,12.20
2024-02-05T14:12:47.730Z,12.30
2024-02-05T14:17:49.691Z,12.10
2024-02-05T14:22:52.894Z,12.10
2024-02-05T14:27:54.762Z,11.90
2024-02-05T14:32:56.632Z,11.70
2024-02-05T14:37:59.954Z,11.60
2024-02-05T14:43:02.036Z,11.70
2024-02-05T14:48:04.385Z,11.70
2024-02-05T14:53:11.337Z,11.60
2024-02-05T14:58:13.385Z,11.40
2024-02-05T15:03:15.178Z,11.40
2024-02-05T15:08:18.380Z,11.30
2024-02-05T15:13:20.219Z,11.20
2024-02-05T15:18:22.284Z,11.00
2024-02-05T15:23:25.465Z,10.90
2024-02-05T15:28:27.414Z,10.80
2024-02-05T15:33:29.343Z,10.70
2024-02-05T15:38:32.790Z,10.50
2024-02-05T15:43:34.791Z,10.40
2024-02-05T15:48:36.906Z,10.30
2024-02-05T15:53:40.173Z,10.20
2024-02-05T15:58:42.074Z,10.10
2024-02-05T16:03:45.200Z,10.00
2024-02-05T16:08:48.498Z,9.90
2024-02-05T16:13:50.333Z,9.70
2024-02-05T16:19:00.004Z,9.60
2024-02-05T16:24:04.374Z,9.50
2024-02-05T16:29:06.290Z,9.30
2024-02-05T16:34:08.292Z,9.30
2024-02-05T16:39:11.659Z,9.10
2024-02-05T16:44:13.699Z,9.10
2024-02-05T16:49:18.554Z,8.90
2024-02-05T16:54:21.954Z,8.70
2024-02-05T16:59:23.825Z,8.70
2024-02-05T17:04:25.770Z,8.80
2024-02-05T17:09:29.176Z,8.60
2024-02-05T17:14:31.036Z,8.60
2024-02-05T17:19:32.891Z,8.60
2024-02-05T17:24:36.368Z,8.50
2024-02-05T17:29:38.319Z,8.50
2024-02-05T17:34:40.260Z,8.40
2024-02-05T17:39:44.319Z,8.30
2024-02-05T17:44:46.550Z,8.30
2024-02-05T17:49:48.391Z,8.10
2024-02-05T17:54:51.665Z,8.00
2024-02-05T17:59:53.545Z,8.00
2024-02-05T18:04:55.862Z,7.90
2024-02-05T18:09:59.236Z,7.90
2024-02-05T18:15:01.145Z,7.90
2024-02-05T18:20:03.070Z,7.80
2024-02-05T18:25:06.713Z,7.80
2024-02-05T18:30:09.586Z,7.70
2024-02-05T18:35:11.698Z,7.70
2024-02-05T18:40:15.507Z,7.70
2024-02-05T18:45:17.507Z,7.60
2024-02-05T18:50:19.637Z,7.60
2024-02-05T18:55:23.107Z,7.50
2024-02-05T19:00:25.042Z,7.40
2024-02-05T19:05:27.482Z,7.20
2024-02-05T19:10:30.945Z,7.00
2024-02-05T19:15:33.101Z,6.80
2024-02-05T19:20:35.006Z,6.90
2024-02-05T19:25:38.348Z,6.90
2024-02-05T19:30:40.197Z,6.80
2024-02-05T19:35:58.198Z,6.80
2024-02-05T19:41:09.100Z,6.90
2024-02-05T19:46:10.958Z,6.80
2024-02-05T19:51:13.160Z,6.90
2024-02-05T19:56:16.785Z,7.00
2024-02-05T20:01:22.143Z,7.00
2024-02-05T20:06:35.484Z,7.10
2024-02-05T20:11:38.933Z,7.10
2024-02-05T20:22:26.519Z,7.10
2024-02-05T20:27:29.902Z,7.10
2024-02-05T20:32:34.537Z,7.10
2024-02-05T20:37:40.348Z,7.10
2024-02-05T20:42:44.019Z,7.10
2024-02-05T20:47:45.861Z,7.10
2024-02-05T20:52:47.822Z,7.20
2024-02-05T20:57:51.160Z,7.20
2024-02-05T21:02:53.107Z,7.20
2024-02-05T21:07:55.031Z,7.20
2024-02-05T21:12:58.312Z,7.20
2024-02-05T21:18:00.376Z,7.20
2024-02-05T21:23:02.266Z,7.20
2024-02-05T21:28:05.884Z,7.30
2024-02-05T21:33:08.161Z,7.30
2024-02-05T21:38:10.153Z,7.30
2024-02-05T21:43:14.483Z,7.40
2024-02-05T21:48:16.413Z,7.40
2024-02-05T21:53:18.370Z,7.40
2024-02-05T21:58:21.809Z,7.40
2024-02-05T22:03:23.806Z,7.40
2024-02-05T22:08:25.707Z,7.30
2024-02-05T22:13:31.706Z,7.30
2024-02-05T22:18:41.533Z,7.30
2024-02-05T22:23:43.385Z,7.30
2024-02-05T22:28:46.692Z,7.30
2024-02-05T22:33:48.780Z,7.30
2024-02-05T22:38:50.577Z,7.30
2024-02-05T22:43:53.790Z,7.20
2024-02-05T22:48:55.716Z,7.30
2024-02-05T22:53:57.662Z,7.20
2024-02-05T22:59:00.872Z,7.30
2024-02-05T23:04:02.920Z,7.30
2024-02-05T23:09:04.974Z,7.20
2024-02-05T23:14:11.438Z,7.30
2024-02-05T23:19:13.802Z,7.10
2024-02-05T23:24:16.007Z,7.20
2024-02-05T23:29:19.329Z,7.20
2024-02-05T23:34:21.297Z,7.20
2024-02-05T23:39:23.178Z,7.20
2024-02-05T23:44:26.446Z,7.10
2024-02-05T23:49:28.331Z,7.20
2024-02-05T23:54:30.532Z,7.10
2024-02-05T23:59:33.696Z,7.10
